Wilson Cadiz — 8PSY — position and weather

sailwx.info

Track history (hours):
 
Tides and Currents Weather Stations Pressure Air Temp Water Temp Dewpoint Dewpoint Depression Visibility Wind Speed Wind Dir Waves Ship Positions

Wilson Cadiz

Last reported at 2016-Feb-14 00:29 UTC. Time now 2016-Feb-14 19:04 UTC.
Position N 36°29' E 014°46'.

Length 100 m; draft 5.8 m.

Type: Ship. MMSI: 314216000.

Date/timePositionNaut miles runAvg speedWind from/ knotsBaromVisibWave heightAir tempDewpointWater temp
2016-Feb-14 00:29N 36°29' E 014°46'1111.9
2016-Feb-13 23:33N 36°30' E 014°32'1111.2
2016-Feb-13 22:33N 36°33' E 014°19'1111.6
2016-Feb-13 21:34N 36°36' E 014°05'  
2016-Feb-10 11:31N 35°54' W 005°19'0 0.0
2016-Feb-10 08:33N 35°54' W 005°19'0 0.0
2016-Feb-10 07:33N 35°54' W 005°19'0 0.1
2016-Feb-10 06:33N 35°54' W 005°19'1 1.2
2016-Feb-10 05:34N 35°55' W 005°18'4 3.7
2016-Feb-10 04:33N 35°57' W 005°23'11 9.9
2016-Feb-10 03:26N 35°55' W 005°36'12411.3
2016-Feb-09 16:30N 36°19' W 008°06'2311.2
2016-Feb-09 14:28N 36°25' W 008°34'1010.9
2016-Feb-09 13:31N 36°27' W 008°46'1111.3
2016-Feb-09 12:31N 36°31' W 008°60'1010.0
2016-Feb-09 11:33N 36°33' W 009°11'1110.0
2016-Feb-09 10:27N 36°39' W 009°23'910.5
2016-Feb-09 09:34N 36°46' W 009°30'10 9.7
2016-Feb-09 08:31N 36°56' W 009°35'1110.1
2016-Feb-09 07:27N 37°06' W 009°37'1010.4
2016-Feb-09 06:31N 37°16' W 009°40'1010.4
2016-Feb-09 05:31N 37°26' W 009°43'1010.2
2016-Feb-09 04:33N 37°35' W 009°45'1110.7
2016-Feb-09 03:34N 37°46' W 009°48'1110.6
2016-Feb-09 02:31N 37°56' W 009°52'1110.4
2016-Feb-09 01:28N 38°07' W 009°55'1111.2
2016-Feb-09 00:28N 38°18' W 009°58'9 9.7
2016-Feb-08 23:31N 38°27' W 010°01'1110.8
2016-Feb-08 22:33N 38°37' W 010°04'1110.8
2016-Feb-08 21:33N 38°48' W 010°05'1110.4
2016-Feb-08 20:32N 38°58' W 010°05'1211.7
2016-Feb-08 19:31N 39°10' W 010°05'10 9.9
2016-Feb-08 18:28N 39°21' W 010°05'1110.4
2016-Feb-08 17:22N 39°32' W 010°05'8 9.9
2016-Feb-08 16:31N 39°41' W 010°05'1110.8
2016-Feb-08 15:31N 39°51' W 010°05'1110.1
2016-Feb-08 14:28N 40°02' W 010°05'9 9.9
2016-Feb-08 13:31N 40°11' W 010°06'1110.5
2016-Feb-08 12:31N 40°22' W 010°06'2010.1
2016-Feb-08 10:31N 40°42' W 010°05'1210.0
2016-Feb-08 09:22N 40°54' W 010°05'8 9.8
2016-Feb-08 08:31N 41°02' W 010°04'1010.3
2016-Feb-08 07:31N 41°12' W 010°04'10 9.9
2016-Feb-08 06:31N 41°22' W 010°04'9 9.0
2016-Feb-08 05:28N 41°32' W 010°04'8 8.4
2016-Feb-08 04:31N 41°40' W 010°04'9 8.9
2016-Feb-08 03:31N 41°48' W 010°04'8 8.5
2016-Feb-08 02:31N 41°57' W 010°04'  
2016-Feb-04 02:04N 50°31' W 000°04'7 9.0
2016-Feb-04 01:20N 50°33' E 000°06'7 9.6
2016-Feb-04 00:34N 50°35' E 000°17'  
Track history (hours):
 
Tides and Currents Weather Stations Pressure Air Temp Water Temp Dewpoint Dewpoint Depression Visibility Wind Speed Wind Dir Waves Ship Positions

Wilson Cadiz

Last reported at 2016-Feb-14 00:29 UTC. Time now 2016-Feb-14 19:04 UTC.
Position N 36°29' E 014°46'.

Length 100 m; draft 5.8 m.

Type: Ship. MMSI: 314216000.

Date/timePositionNaut miles runAvg speedWind from/ knotsBaromVisibWave heightAir tempDewpointWater temp
2016-Feb-14 00:29N 36°29' E 014°46'1111.9
2016-Feb-13 23:33N 36°30' E 014°32'1111.2
2016-Feb-13 22:33N 36°33' E 014°19'1111.6
2016-Feb-13 21:34N 36°36' E 014°05'  
2016-Feb-10 11:31N 35°54' W 005°19'0 0.0
2016-Feb-10 08:33N 35°54' W 005°19'0 0.0
2016-Feb-10 07:33N 35°54' W 005°19'0 0.1
2016-Feb-10 06:33N 35°54' W 005°19'1 1.2
2016-Feb-10 05:34N 35°55' W 005°18'4 3.7
2016-Feb-10 04:33N 35°57' W 005°23'11 9.9
2016-Feb-10 03:26N 35°55' W 005°36'12411.3
2016-Feb-09 16:30N 36°19' W 008°06'2311.2
2016-Feb-09 14:28N 36°25' W 008°34'1010.9
2016-Feb-09 13:31N 36°27' W 008°46'1111.3
2016-Feb-09 12:31N 36°31' W 008°60'1010.0
2016-Feb-09 11:33N 36°33' W 009°11'1110.0
2016-Feb-09 10:27N 36°39' W 009°23'910.5
2016-Feb-09 09:34N 36°46' W 009°30'10 9.7
2016-Feb-09 08:31N 36°56' W 009°35'1110.1
2016-Feb-09 07:27N 37°06' W 009°37'1010.4
2016-Feb-09 06:31N 37°16' W 009°40'1010.4
2016-Feb-09 05:31N 37°26' W 009°43'1010.2
2016-Feb-09 04:33N 37°35' W 009°45'1110.7
2016-Feb-09 03:34N 37°46' W 009°48'1110.6
2016-Feb-09 02:31N 37°56' W 009°52'1110.4
2016-Feb-09 01:28N 38°07' W 009°55'1111.2
2016-Feb-09 00:28N 38°18' W 009°58'9 9.7
2016-Feb-08 23:31N 38°27' W 010°01'1110.8
2016-Feb-08 22:33N 38°37' W 010°04'1110.8
2016-Feb-08 21:33N 38°48' W 010°05'1110.4
2016-Feb-08 20:32N 38°58' W 010°05'1211.7
2016-Feb-08 19:31N 39°10' W 010°05'10 9.9
2016-Feb-08 18:28N 39°21' W 010°05'1110.4
2016-Feb-08 17:22N 39°32' W 010°05'8 9.9
2016-Feb-08 16:31N 39°41' W 010°05'1110.8
2016-Feb-08 15:31N 39°51' W 010°05'1110.1
2016-Feb-08 14:28N 40°02' W 010°05'9 9.9
2016-Feb-08 13:31N 40°11' W 010°06'1110.5
2016-Feb-08 12:31N 40°22' W 010°06'2010.1
2016-Feb-08 10:31N 40°42' W 010°05'1210.0
2016-Feb-08 09:22N 40°54' W 010°05'8 9.8
2016-Feb-08 08:31N 41°02' W 010°04'1010.3
2016-Feb-08 07:31N 41°12' W 010°04'10 9.9
2016-Feb-08 06:31N 41°22' W 010°04'9 9.0
2016-Feb-08 05:28N 41°32' W 010°04'8 8.4
2016-Feb-08 04:31N 41°40' W 010°04'9 8.9
2016-Feb-08 03:31N 41°48' W 010°04'8 8.5
2016-Feb-08 02:31N 41°57' W 010°04'  
2016-Feb-04 02:04N 50°31' W 000°04'7 9.0
2016-Feb-04 01:20N 50°33' E 000°06'7 9.6
2016-Feb-04 00:34N 50°35' E 000°17'  

Dump ship's entire track history